Frey Ranch - Fallon, Nevada Weather observations

Data are for observation ending at time listed.
 Day   Time    Ave.   Ave.  Ave.  Vector   Max.   Stn.    Total    Solar   Ave.  
  of    of     Air    Rel.  Wind   Wind    Wind   Baro.  Precip.   Rad.    Soil  
Year   Day     Temp.  Hum.  Speed  Dir.    Gust   Pres.                    Temp. 
2014   (PST)    F      %     mph   deg.    mph     mb.     in.     W/m2     F   
------------------------------------------------------------------------------
 350   11:40   49.7    42   10.0   180     15.0   999.0    0.00     501    42.6
 350   11:50   49.9    41   10.2   177     15.1   999.0    0.00     502    42.6
 350   12:00   50.3    40   10.3   175     14.4   999.0    0.00     503    42.6
 350   12:10   50.8    40    9.7   160     14.8   999.0    0.00     500    42.6
 350   12:20   51.4    39    9.4   156     13.8   999.0    0.00     495    42.6
 350   12:30   51.1    38    9.5   143     13.6   999.0    0.00     490    42.6
 350   12:40   51.6    37    9.2   151     14.6   999.0    0.00     483    42.6
 350   12:50   51.7    36    9.7   144     16.1   999.0    0.00     475    42.6
 350   13:00   51.7    37   10.2   142     14.7   999.0    0.00     472    42.6
 350   13:10   52.5    35    9.8   165     15.0   999.0    0.00     468    42.6
 350   13:20   51.9    35   11.3   146     15.5   999.0    0.00     386    42.6
 350   13:30   50.9    36   11.5   130     15.3   999.0    0.00     239    42.6
 350   13:40   51.6    37   12.3   132     17.4   999.0    0.00     447    42.6
 350   13:50   52.2    36   12.6   139     17.2   999.0    0.00     438    42.6
 350   14:00   52.0    35   12.2   150     16.8   999.0    0.00     326    42.6
 350   14:10   52.5    34    9.2   155     14.7   999.0    0.00     389    42.7
 350   14:20   53.1    34    9.7   159     14.4   999.0    0.00     354    42.7
 350   14:30   52.8    33   10.7   148     15.3   999.0    0.00     329    42.7
 350   14:40   52.1    34   10.4   143     15.7   999.0    0.00     280    42.7
 350   14:50   52.1    34    9.6   148     14.2   999.0    0.00     256    42.7
 350   15:00   52.0    34   10.1   144     13.3   999.0    0.00     232    42.7
 350   15:10   51.9    34    9.0   150     12.4   999.0    0.00     209    42.8
 350   15:20   51.6    35   10.0   152     14.4   999.0    0.00     183    42.8
 350   15:30   51.0    36   10.9   148     15.0   999.0    0.00     155    42.8
 350   15:40   50.1    38   11.1   140     14.6   999.0    0.00     121    42.8
 350   15:50   49.4    38   11.1   141     15.0   999.0    0.00      96    42.9
 350   16:00   48.5    41    9.9   138     13.3   999.0    0.00      65    42.9
 350   16:10   47.0    44    8.8   139     12.8   999.0    0.00      16    42.9
 350   16:20   45.9    44    9.6   139     13.8   999.0    0.00       6    43.0
 350   16:30   44.5    47    8.3   126     10.8   999.0    0.00       2    43.0
 350   16:40   43.1    51    7.8   116      9.2   999.0    0.00       1    43.1
 350   16:50   42.3    52    9.9   114     14.8   999.0    0.00       0    43.1
 350   17:00   43.6    48   13.3   134     17.7   999.0    0.00       0    43.1
 350   17:10   43.7    48   13.4   136     19.4   999.0    0.00       0    43.2
 350   17:20   43.0    50   11.8   138     14.9   999.0    0.00       0    43.2
 350   17:30   42.2    52   11.1   129     14.1   999.0    0.00       0    43.3
 350   17:40   41.3    53   10.7   123     14.2   999.0    0.00       0    43.3
 350   17:50   41.3    53   12.1   116     15.3   999.0    0.00       0    43.3
 350   18:00   41.3    53   12.8   125     17.2   999.0    0.00       0    43.4
 350   18:10   41.9    51   13.9   127     17.6   999.0    0.00       0    43.4
 350   18:20   41.7    52   12.3   124     17.7   999.0    0.00       0    43.4
 350   18:30   41.1    53   11.2   125     14.6   999.0    0.00       0    43.5
 350   18:40   40.4    54   11.4   131     15.2   999.0    0.00       0    43.5
 350   18:50   40.6    54   11.9   130     16.6   999.0    0.00       0    43.5
 350   19:00   41.3    53   14.3   124     20.3   999.0    0.00       0    43.6
 350   19:10   41.3    53   12.8   124     16.3   999.0    0.00       0    43.6
 350   19:20   40.9    54   11.4   115     16.3   999.0    0.00       0    43.6
 350   19:30   40.5    55   10.6   115     14.6   999.0    0.00       0    43.6
 350   19:40   40.3    56   10.3   118     14.7   999.0    0.00       0    43.6
 350   19:50   39.8    57    9.7   120     13.3   999.0    0.00       0    43.7
 350   20:00   39.7    56   11.5   124     14.4   999.0    0.00       0    43.7
 350   20:10   39.1    57   10.2   130     13.8   999.0    0.00       0    43.7
 350   20:20   39.5    55   11.3   146     16.1   999.0    0.00       0    43.7
 350   20:30   39.3    55   10.3   133     14.3   999.0    0.00       0    43.7
 350   20:40   39.0    56    8.8   128     12.1   999.0    0.00       0    43.7
 350   20:50   39.5    55   11.6   145     15.8   999.0    0.00       0    43.7
 350   21:00   39.1    56   11.4   142     14.9   999.0    0.00       0    43.7
 350   21:10   38.1    58   10.5   142     15.0   999.0    0.00       0    43.7
 350   21:20   37.2    60    8.9   130     11.2   999.0    0.00       0    43.7
 350   21:30   36.2    63   10.3   123     12.0   999.0    0.00       0    43.7
 350   21:40   36.6    61   10.2   126     12.6   999.0    0.00       0    43.7
 350   21:50   36.7    61   10.0   128     12.2   999.0    0.00       0    43.7
 350   22:00   37.6    59   10.3   132     13.1   999.0    0.00       0    43.7
 350   22:10   38.3    58   11.0   143     16.5   999.0    0.00       0    43.7
 350   22:20   38.1    58   10.2   142     14.1   999.0    0.00       0    43.7
 350   22:30   38.0    58    9.2   146     13.6   999.0    0.00       0    43.7
 350   22:40   37.1    60    9.0   144     11.8   999.0    0.00       0    43.7
 350   22:50   37.5    59   10.1   145     12.7   999.0    0.00       0    43.7
 350   23:00   38.0    58   11.1   146     14.1   999.0    0.00       0    43.7
 350   23:10   38.0    58   10.6   148     13.1   999.0    0.00       0    43.7
 350   23:20   37.9    58    9.1   153     11.0   999.0    0.00       0    43.7
 350   23:30   37.9    58    7.9   141     10.6   999.0    0.00       0    43.7
 350   23:40   38.6    57    6.4   142     10.8   999.0    0.00       0    43.6
 350   23:50   38.7    57    5.2   126      8.4   999.0    0.00       0    43.6
 351    0:00   39.3    56    5.5   145     10.2   999.0    0.00       0    43.6
 351    0:10   39.7    56    8.0   150     12.8   999.0    0.00       0    43.6
 351    0:20   39.9    56    8.5   146     14.0   999.0    0.00       0    43.6
 351    0:30   40.4    54   10.6   153     17.6   999.0    0.00       0    43.6
 351    0:40   40.9    53   12.2   147     16.9   999.0    0.00       0    43.6
 351    0:50   40.6    54   10.7   155     16.1   999.0    0.00       0    43.5
 351    1:00   40.4    54    8.8   139     14.8   999.0    0.00       0    43.5
 351    1:10   40.0    55    8.0   130     10.9   999.0    0.00       0    43.5
 351    1:20   39.7    56    7.7   138     11.6   999.0    0.00       0    43.5
 351    1:30   39.8    56    8.8   144     12.1   999.0    0.00       0    43.5
 351    1:40   39.6    56    8.2   141     11.6   999.0    0.00       0    43.4
 351    1:50   39.3    57    8.2   143     12.4   999.0    0.00       0    43.4
 351    2:00   38.8    58    7.2   140     10.3   999.0    0.00       0    43.4
 351    2:10   38.4    60    8.1   142     10.6   999.0    0.00       0    43.4
 351    2:20   38.2    61    8.2   136     11.2   999.0    0.00       0    43.4
 351    2:30   38.7    60    8.5   142     11.7   999.0    0.00       0    43.4
 351    2:40   38.6    61    7.2   142      9.5   999.0    0.00       0    43.4
 351    2:50   38.4    61    8.1   144     11.8   999.0    0.00       0    43.3
 351    3:00   38.7    59    8.8   138     11.5   999.0    0.00       0    43.3
 351    3:10   39.0    58    9.4   138     11.7   999.0    0.00       0    43.3
 351    3:20   39.1    58    9.0   139     14.2   999.0    0.00       0    43.3
 351    3:30   39.5    58    9.2   145     11.5   999.0    0.00       0    43.3
 351    3:40   39.3    59    8.5   146     10.4   999.0    0.00       0    43.3
 351    3:50   38.7    61    7.2   147      9.2   999.0    0.00       0    43.2
 351    4:00   38.6    61    6.8   153      9.2   999.0    0.00       0    43.2
 351    4:10   38.8    60    5.8   160      7.9   999.0    0.00       0    43.2
 351    4:20   38.6    61    4.6   131      8.0   999.0    0.00       0    43.2
 351    4:30   38.2    62    2.6   122      7.3   999.0    0.00       0    43.2
 351    4:40   38.9    60    7.0   141      9.7   999.0    0.00       0    43.2
 351    4:50   39.6    59    7.9   145     11.7   999.0    0.00       0    43.2
 351    5:00   39.8    59    7.6   144     10.1   999.0    0.00       0    43.2
 351    5:10   39.6    60    6.4   145      9.2   999.0    0.00       0    43.1
 351    5:20   39.1    61    6.0   140      8.7   999.0    0.00       0    43.1
 351    5:30   38.8    62    5.9   134      8.2   999.0    0.00       0    43.1
 351    5:40   38.3    64    4.4   116      5.8   999.0    0.00       0    43.1
 351    5:50   38.0    65    4.9   118      6.2   999.0    0.00       0    43.1
 351    6:00   38.5    63    5.0   122      8.5   999.0    0.00       0    43.1
 351    6:10   38.5    63    5.6   113      7.2   999.0    0.00       0    43.1
 351    6:20   37.9    65    5.5   102      6.8   999.0    0.00       0    43.1
 351    6:30   37.8    64    3.7    91      5.4   999.0    0.00       0    43.0
 351    6:40   37.3    65    5.5    97      7.6   999.0    0.00       0    43.0
 351    6:50   37.1    65    5.0   102      7.3   999.0    0.00       0    43.0
 351    7:00   37.3    65    5.0   109      6.2   999.0    0.00       1    43.0
 351    7:10   37.1    66    3.6   110      4.7   999.0    0.00       4    43.0
 351    7:20   37.3    65    1.8    17      4.0   999.0    0.00      12    43.0
 351    7:30   37.4    65    1.2    25      2.5   999.0    0.00      19    43.0
 351    7:40   37.0    66    1.9    53      3.8   999.0    0.00      25    43.0
 351    7:50   36.7    67    1.0    39      2.4   999.0    0.00      32    43.0
 351    8:00   36.5    67    1.4    17      3.0   999.0    0.00      38    42.9
 351    8:10   36.0    68    3.0   346      4.6   999.0    0.00      50    42.9
 351    8:20   35.5    69    3.1   331      4.5   999.0    0.00      86    42.9
 351    8:30   36.0    68    3.6   350      5.2   999.0    0.00     187    42.9
 351    8:40   37.3    66    2.8   353      4.5   999.0    0.00     258    42.9
 351    8:50   38.9    62    1.4    22      3.4   999.0    0.00     233    42.9
 351    9:00   39.9    61    2.2    86      3.5   999.0    0.00     169    42.9
 351    9:10   41.3    59    0.7    81      3.3   999.0    0.00     290    42.9
 351    9:20   44.0    55    3.4   129     10.1   999.0    0.00     332    42.9
 351    9:30   45.6    51    7.3   145      9.9   999.0    0.00     351    42.9
 351    9:40   45.8    50    7.6   146     10.3   999.0    0.00     371    42.9
 351    9:50   46.3    49    8.5   148     13.7   999.0    0.00     388    42.8
 351   10:00   46.6    48    7.6   156     12.9   999.0    0.00     404    42.8
 351   10:10   47.3    47    8.0   165     13.6   999.0    0.00     420    42.8
 351   10:20   47.3    47    7.1   162     17.1   999.0    0.00     434    42.8
 351   10:30   46.9    48    7.5   135     13.7   999.0    0.00     448    42.8
 351   10:40   47.1    48    8.2   140     12.4   999.0    0.00     460    42.8
 351   10:50   47.8    45    8.0   181     12.5   999.0    0.00     470    42.8
 351   11:00   47.8    45    6.7   195     10.8   999.0    0.00     479    42.8
 351   11:10   48.2    44    6.6   171     14.2   999.0    0.00     485    42.8
 351   11:20   48.7    43    4.9   195      7.5   999.0    0.00     491    42.8
 351   11:30   49.3    42    4.5   185      8.4   999.0    0.00     495    42.8

Return to Frey Ranch - Fallon, Nevada graphs page.


Western Regional Climate Center,wrcc@dri.edu